sensor_id;sensor_type;location;lat;lon;timestamp;temperature;humidity
7234;DHT22;3658;47.992;10.158;2024-03-06T00:00:01;21.30;40.80
7234;DHT22;3658;47.992;10.158;2024-03-06T00:02:29;21.30;40.20
7234;DHT22;3658;47.992;10.158;2024-03-06T00:04:55;21.30;40.10
7234;DHT22;3658;47.992;10.158;2024-03-06T00:07:23;21.30;40.00
7234;DHT22;3658;47.992;10.158;2024-03-06T00:09:50;21.30;40.00
7234;DHT22;3658;47.992;10.158;2024-03-06T00:12:18;21.30;40.00
7234;DHT22;3658;47.992;10.158;2024-03-06T00:14:45;21.30;40.00
7234;DHT22;3658;47.992;10.158;2024-03-06T00:17:12;21.30;40.00
7234;DHT22;3658;47.992;10.158;2024-03-06T00:19:38;21.30;40.00
7234;DHT22;3658;47.992;10.158;2024-03-06T00:22:05;21.30;40.00
7234;DHT22;3658;47.992;10.158;2024-03-06T00:24:33;21.30;40.00
7234;DHT22;3658;47.992;10.158;2024-03-06T00:27:00;21.30;40.00
7234;DHT22;3658;47.992;10.158;2024-03-06T00:29:27;21.30;40.00
7234;DHT22;3658;47.992;10.158;2024-03-06T00:31:53;21.30;40.00
7234;DHT22;3658;47.992;10.158;2024-03-06T00:34:20;21.30;40.00
7234;DHT22;3658;47.992;10.158;2024-03-06T00:36:47;21.30;39.90
7234;DHT22;3658;47.992;10.158;2024-03-06T00:39:15;21.30;39.90
7234;DHT22;3658;47.992;10.158;2024-03-06T00:41:43;21.30;39.80
7234;DHT22;3658;47.992;10.158;2024-03-06T00:44:09;21.30;39.80
7234;DHT22;3658;47.992;10.158;2024-03-06T00:46:36;21.30;39.80
7234;DHT22;3658;47.992;10.158;2024-03-06T00:49:03;21.20;39.70
7234;DHT22;3658;47.992;10.158;2024-03-06T00:51:30;21.20;39.70
7234;DHT22;3658;47.992;10.158;2024-03-06T00:53:57;21.30;39.80
7234;DHT22;3658;47.992;10.158;2024-03-06T00:56:23;21.30;39.70
7234;DHT22;3658;47.992;10.158;2024-03-06T00:58:52;21.20;39.70
7234;DHT22;3658;47.992;10.158;2024-03-06T01:01:18;21.20;39.80
7234;DHT22;3658;47.992;10.158;2024-03-06T01:03:45;21.20;39.70
7234;DHT22;3658;47.992;10.158;2024-03-06T01:06:12;21.20;39.60
7234;DHT22;3658;47.992;10.158;2024-03-06T01:08:39;21.20;39.70
7234;DHT22;3658;47.992;10.158;2024-03-06T01:11:06;21.20;39.60
7234;DHT22;3658;47.992;10.158;2024-03-06T01:13:33;21.30;39.60
7234;DHT22;3658;47.992;10.158;2024-03-06T01:16:01;21.30;39.60
7234;DHT22;3658;47.992;10.158;2024-03-06T01:18:27;21.20;39.50
7234;DHT22;3658;47.992;10.158;2024-03-06T01:20:54;21.20;39.50
7234;DHT22;3658;47.992;10.158;2024-03-06T01:23:21;21.30;39.60
7234;DHT22;3658;47.992;10.158;2024-03-06T01:25:48;21.30;39.60
7234;DHT22;3658;47.992;10.158;2024-03-06T01:28:15;21.30;39.60
7234;DHT22;3658;47.992;10.158;2024-03-06T01:30:41;21.20;39.50
7234;DHT22;3658;47.992;10.158;2024-03-06T01:33:09;21.20;39.50
7234;DHT22;3658;47.992;10.158;2024-03-06T01:35:36;21.20;39.50
7234;DHT22;3658;47.992;10.158;2024-03-06T01:38:03;21.20;39.50
7234;DHT22;3658;47.992;10.158;2024-03-06T01:40:31;21.20;39.50
7234;DHT22;3658;47.992;10.158;2024-03-06T01:42:58;21.20;39.50
7234;DHT22;3658;47.992;10.158;2024-03-06T01:45:26;21.20;39.50
7234;DHT22;3658;47.992;10.158;2024-03-06T01:47:53;21.20;39.40
7234;DHT22;3658;47.992;10.158;2024-03-06T01:50:21;21.20;39.30
7234;DHT22;3658;47.992;10.158;2024-03-06T01:52:50;21.20;39.30
7234;DHT22;3658;47.992;10.158;2024-03-06T01:55:16;21.20;39.30
7234;DHT22;3658;47.992;10.158;2024-03-06T01:57:43;21.20;39.40
7234;DHT22;3658;47.992;10.158;2024-03-06T02:00:11;21.30;39.50
7234;DHT22;3658;47.992;10.158;2024-03-06T02:02:42;21.20;39.40
7234;DHT22;3658;47.992;10.158;2024-03-06T02:05:09;21.20;39.30
7234;DHT22;3658;47.992;10.158;2024-03-06T02:07:38;21.20;39.40
7234;DHT22;3658;47.992;10.158;2024-03-06T02:10:07;21.20;39.30
7234;DHT22;3658;47.992;10.158;2024-03-06T02:12:35;21.20;39.30
7234;DHT22;3658;47.992;10.158;2024-03-06T02:15:02;21.20;39.30
7234;DHT22;3658;47.992;10.158;2024-03-06T02:17:29;21.20;39.30
7234;DHT22;3658;47.992;10.158;2024-03-06T02:19:56;21.20;39.40
7234;DHT22;3658;47.992;10.158;2024-03-06T02:22:25;21.20;39.30
7234;DHT22;3658;47.992;10.158;2024-03-06T02:24:52;21.20;39.20
7234;DHT22;3658;47.992;10.158;2024-03-06T02:27:18;21.20;39.20
7234;DHT22;3658;47.992;10.158;2024-03-06T02:29:45;21.20;39.30
7234;DHT22;3658;47.992;10.158;2024-03-06T02:32:12;21.30;39.30
7234;DHT22;3658;47.992;10.158;2024-03-06T02:34:40;21.20;39.20
7234;DHT22;3658;47.992;10.158;2024-03-06T02:37:07;21.20;39.30
7234;DHT22;3658;47.992;10.158;2024-03-06T02:39:35;21.20;39.30
7234;DHT22;3658;47.992;10.158;2024-03-06T02:42:02;21.20;39.30
7234;DHT22;3658;47.992;10.158;2024-03-06T02:44:29;21.20;39.20
7234;DHT22;3658;47.992;10.158;2024-03-06T02:46:56;21.20;39.30
7234;DHT22;3658;47.992;10.158;2024-03-06T02:49:22;21.20;39.30
7234;DHT22;3658;47.992;10.158;2024-03-06T02:51:49;21.20;39.30
7234;DHT22;3658;47.992;10.158;2024-03-06T02:54:17;21.20;39.20
7234;DHT22;3658;47.992;10.158;2024-03-06T02:56:45;21.20;39.20
7234;DHT22;3658;47.992;10.158;2024-03-06T02:59:11;21.20;39.20
7234;DHT22;3658;47.992;10.158;2024-03-06T03:01:39;21.20;39.20
7234;DHT22;3658;47.992;10.158;2024-03-06T03:04:06;21.20;39.20
7234;DHT22;3658;47.992;10.158;2024-03-06T03:06:33;21.20;39.20
7234;DHT22;3658;47.992;10.158;2024-03-06T03:09:00;21.20;39.20
7234;DHT22;3658;47.992;10.158;2024-03-06T03:11:26;21.20;39.20
7234;DHT22;3658;47.992;10.158;2024-03-06T03:13:54;21.20;39.20
7234;DHT22;3658;47.992;10.158;2024-03-06T03:16:22;21.20;39.20
7234;DHT22;3658;47.992;10.158;2024-03-06T03:18:49;21.20;39.20
7234;DHT22;3658;47.992;10.158;2024-03-06T03:21:16;21.20;39.00
7234;DHT22;3658;47.992;10.158;2024-03-06T03:23:43;21.20;39.10
7234;DHT22;3658;47.992;10.158;2024-03-06T03:26:09;21.20;39.10
7234;DHT22;3658;47.992;10.158;2024-03-06T03:28:37;21.20;39.10
7234;DHT22;3658;47.992;10.158;2024-03-06T03:31:06;21.20;39.10
7234;DHT22;3658;47.992;10.158;2024-03-06T03:33:34;21.20;39.10
7234;DHT22;3658;47.992;10.158;2024-03-06T03:36:02;21.20;39.10
7234;DHT22;3658;47.992;10.158;2024-03-06T03:38:28;21.20;39.10
7234;DHT22;3658;47.992;10.158;2024-03-06T03:40:55;21.20;39.00
7234;DHT22;3658;47.992;10.158;2024-03-06T03:43:22;21.20;39.00
7234;DHT22;3658;47.992;10.158;2024-03-06T03:45:48;21.20;39.00
7234;DHT22;3658;47.992;10.158;2024-03-06T03:48:16;21.20;39.00
7234;DHT22;3658;47.992;10.158;2024-03-06T03:50:43;21.20;39.00
7234;DHT22;3658;47.992;10.158;2024-03-06T03:53:10;21.20;39.00
7234;DHT22;3658;47.992;10.158;2024-03-06T03:55:36;21.20;39.10
7234;DHT22;3658;47.992;10.158;2024-03-06T03:58:03;21.10;39.00
7234;DHT22;3658;47.992;10.158;2024-03-06T04:00:32;21.20;39.10
7234;DHT22;3658;47.992;10.158;2024-03-06T04:02:59;21.20;39.00
7234;DHT22;3658;47.992;10.158;2024-03-06T04:05:27;21.20;39.00
7234;DHT22;3658;47.992;10.158;2024-03-06T04:07:53;21.20;39.00
7234;DHT22;3658;47.992;10.158;2024-03-06T04:10:20;21.20;39.00
7234;DHT22;3658;47.992;10.158;2024-03-06T04:12:47;21.20;39.00
7234;DHT22;3658;47.992;10.158;2024-03-06T04:15:14;21.20;39.00
7234;DHT22;3658;47.992;10.158;2024-03-06T04:17:41;21.20;39.00
7234;DHT22;3658;47.992;10.158;2024-03-06T04:20:09;21.20;39.00
7234;DHT22;3658;47.992;10.158;2024-03-06T04:22:39;21.20;39.00
7234;DHT22;3658;47.992;10.158;2024-03-06T04:25:06;21.20;39.00
7234;DHT22;3658;47.992;10.158;2024-03-06T04:27:32;21.20;39.00
7234;DHT22;3658;47.992;10.158;2024-03-06T04:29:59;21.10;39.00
7234;DHT22;3658;47.992;10.158;2024-03-06T04:32:26;21.10;38.90
7234;DHT22;3658;47.992;10.158;2024-03-06T04:34:53;21.10;38.90
7234;DHT22;3658;47.992;10.158;2024-03-06T04:37:21;21.10;38.90
7234;DHT22;3658;47.992;10.158;2024-03-06T04:39:49;21.10;38.80
7234;DHT22;3658;47.992;10.158;2024-03-06T04:42:16;21.10;38.90
7234;DHT22;3658;47.992;10.158;2024-03-06T04:44:43;21.10;38.90
7234;DHT22;3658;47.992;10.158;2024-03-06T04:47:09;21.10;38.90
7234;DHT22;3658;47.992;10.158;2024-03-06T04:49:36;21.10;38.90
7234;DHT22;3658;47.992;10.158;2024-03-06T04:52:03;21.10;38.90
7234;DHT22;3658;47.992;10.158;2024-03-06T04:54:30;21.10;38.90
7234;DHT22;3658;47.992;10.158;2024-03-06T04:56:58;21.10;38.90
7234;DHT22;3658;47.992;10.158;2024-03-06T04:59:25;21.10;38.90
7234;DHT22;3658;47.992;10.158;2024-03-06T05:01:52;21.10;38.90
7234;DHT22;3658;47.992;10.158;2024-03-06T05:04:18;21.10;38.90
7234;DHT22;3658;47.992;10.158;2024-03-06T05:06:45;21.10;38.80
7234;DHT22;3658;47.992;10.158;2024-03-06T05:09:12;21.10;38.80
7234;DHT22;3658;47.992;10.158;2024-03-06T05:11:40;21.10;38.70
7234;DHT22;3658;47.992;10.158;2024-03-06T05:14:08;21.10;38.80
7234;DHT22;3658;47.992;10.158;2024-03-06T05:16:35;21.10;38.80
7234;DHT22;3658;47.992;10.158;2024-03-06T05:19:02;21.10;38.80
7234;DHT22;3658;47.992;10.158;2024-03-06T05:21:30;21.10;38.80
7234;DHT22;3658;47.992;10.158;2024-03-06T05:23:56;21.10;38.80
7234;DHT22;3658;47.992;10.158;2024-03-06T05:26:23;21.10;38.80
7234;DHT22;3658;47.992;10.158;2024-03-06T05:28:50;21.10;38.80
7234;DHT22;3658;47.992;10.158;2024-03-06T05:31:19;21.10;39.00
7234;DHT22;3658;47.992;10.158;2024-03-06T05:33:47;21.10;40.40
7234;DHT22;3658;47.992;10.158;2024-03-06T05:36:15;21.10;40.80
7234;DHT22;3658;47.992;10.158;2024-03-06T05:38:42;21.10;40.70
7234;DHT22;3658;47.992;10.158;2024-03-06T05:41:09;21.10;40.90
7234;DHT22;3658;47.992;10.158;2024-03-06T05:43:36;21.10;41.20
7234;DHT22;3658;47.992;10.158;2024-03-06T05:46:03;21.10;41.20
7234;DHT22;3658;47.992;10.158;2024-03-06T05:48:31;21.10;41.30
7234;DHT22;3658;47.992;10.158;2024-03-06T05:50:58;21.10;41.30
7234;DHT22;3658;47.992;10.158;2024-03-06T05:53:25;21.10;41.40
7234;DHT22;3658;47.992;10.158;2024-03-06T05:55:52;21.10;41.30
7234;DHT22;3658;47.992;10.158;2024-03-06T05:58:20;21.10;41.30
7234;DHT22;3658;47.992;10.158;2024-03-06T06:00:47;21.10;41.20
7234;DHT22;3658;47.992;10.158;2024-03-06T06:03:14;21.10;41.10
7234;DHT22;3658;47.992;10.158;2024-03-06T06:05:42;21.10;41.10
7234;DHT22;3658;47.992;10.158;2024-03-06T06:08:09;21.10;41.10
7234;DHT22;3658;47.992;10.158;2024-03-06T06:10:35;21.10;41.30
7234;DHT22;3658;47.992;10.158;2024-03-06T06:13:02;21.10;41.40
7234;DHT22;3658;47.992;10.158;2024-03-06T06:15:30;21.10;41.60
7234;DHT22;3658;47.992;10.158;2024-03-06T06:17:57;21.10;41.40
7234;DHT22;3658;47.992;10.158;2024-03-06T06:20:24;21.10;41.80
7234;DHT22;3658;47.992;10.158;2024-03-06T06:22:52;21.10;42.00
7234;DHT22;3658;47.992;10.158;2024-03-06T06:25:19;21.10;42.00
7234;DHT22;3658;47.992;10.158;2024-03-06T06:27:45;21.10;42.10
7234;DHT22;3658;47.992;10.158;2024-03-06T06:30:14;21.10;42.00
7234;DHT22;3658;47.992;10.158;2024-03-06T06:32:41;21.00;41.90
7234;DHT22;3658;47.992;10.158;2024-03-06T06:35:08;21.00;41.90
7234;DHT22;3658;47.992;10.158;2024-03-06T06:37:37;21.00;41.90
7234;DHT22;3658;47.992;10.158;2024-03-06T06:40:06;21.00;41.90
7234;DHT22;3658;47.992;10.158;2024-03-06T06:42:33;21.00;41.90
7234;DHT22;3658;47.992;10.158;2024-03-06T06:45:00;21.00;41.90
7234;DHT22;3658;47.992;10.158;2024-03-06T06:47:28;21.00;41.90
7234;DHT22;3658;47.992;10.158;2024-03-06T06:49:54;21.00;41.80
7234;DHT22;3658;47.992;10.158;2024-03-06T06:52:21;21.00;41.80
7234;DHT22;3658;47.992;10.158;2024-03-06T06:54:48;21.00;41.80
7234;DHT22;3658;47.992;10.158;2024-03-06T06:57:18;21.00;41.90
7234;DHT22;3658;47.992;10.158;2024-03-06T06:59:45;21.00;41.70
7234;DHT22;3658;47.992;10.158;2024-03-06T07:02:12;21.00;41.70
7234;DHT22;3658;47.992;10.158;2024-03-06T07:04:39;21.00;41.70
7234;DHT22;3658;47.992;10.158;2024-03-06T07:07:05;21.00;41.60
7234;DHT22;3658;47.992;10.158;2024-03-06T07:09:32;21.00;41.60
7234;DHT22;3658;47.992;10.158;2024-03-06T07:11:59;21.00;41.60
7234;DHT22;3658;47.992;10.158;2024-03-06T07:14:27;21.00;41.60
7234;DHT22;3658;47.992;10.158;2024-03-06T07:16:54;21.00;41.50
7234;DHT22;3658;47.992;10.158;2024-03-06T07:19:21;21.00;41.40
7234;DHT22;3658;47.992;10.158;2024-03-06T07:21:47;21.00;41.40
7234;DHT22;3658;47.992;10.158;2024-03-06T07:24:14;21.00;41.40
7234;DHT22;3658;47.992;10.158;2024-03-06T07:26:41;21.00;42.00
7234;DHT22;3658;47.992;10.158;2024-03-06T07:29:08;21.00;41.30
7234;DHT22;3658;47.992;10.158;2024-03-06T07:31:42;21.00;41.30
7234;DHT22;3658;47.992;10.158;2024-03-06T07:34:09;21.00;41.40
7234;DHT22;3658;47.992;10.158;2024-03-06T07:36:36;21.00;41.40
7234;DHT22;3658;47.992;10.158;2024-03-06T07:39:03;21.00;41.40
7234;DHT22;3658;47.992;10.158;2024-03-06T07:41:30;21.00;41.40
7234;DHT22;3658;47.992;10.158;2024-03-06T07:43:58;20.90;41.30
7234;DHT22;3658;47.992;10.158;2024-03-06T07:46:25;21.00;41.30
7234;DHT22;3658;47.992;10.158;2024-03-06T07:48:53;21.00;41.30
7234;DHT22;3658;47.992;10.158;2024-03-06T07:51:20;21.00;41.30
7234;DHT22;3658;47.992;10.158;2024-03-06T07:53:47;20.90;41.20
7234;DHT22;3658;47.992;10.158;2024-03-06T07:56:15;20.90;41.20
7234;DHT22;3658;47.992;10.158;2024-03-06T07:58:42;20.90;41.30
7234;DHT22;3658;47.992;10.158;2024-03-06T08:01:09;21.00;41.50
7234;DHT22;3658;47.992;10.158;2024-03-06T08:03:38;21.00;41.50
7234;DHT22;3658;47.992;10.158;2024-03-06T08:06:07;21.20;41.90
7234;DHT22;3658;47.992;10.158;2024-03-06T08:08:34;21.30;41.60
7234;DHT22;3658;47.992;10.158;2024-03-06T08:11:01;21.40;41.40
7234;DHT22;3658;47.992;10.158;2024-03-06T08:13:28;21.50;41.40
7234;DHT22;3658;47.992;10.158;2024-03-06T08:15:55;21.50;41.50
7234;DHT22;3658;47.992;10.158;2024-03-06T08:18:22;21.50;41.40
7234;DHT22;3658;47.992;10.158;2024-03-06T08:20:48;21.60;41.40
7234;DHT22;3658;47.992;10.158;2024-03-06T08:23:16;21.60;41.30
7234;DHT22;3658;47.992;10.158;2024-03-06T08:25:43;21.50;41.40
7234;DHT22;3658;47.992;10.158;2024-03-06T08:28:10;21.50;41.40
7234;DHT22;3658;47.992;10.158;2024-03-06T08:30:37;21.60;41.30
7234;DHT22;3658;47.992;10.158;2024-03-06T08:33:04;21.60;41.10
7234;DHT22;3658;47.992;10.158;2024-03-06T08:35:31;21.60;41.20
7234;DHT22;3658;47.992;10.158;2024-03-06T08:37:57;21.60;41.20
7234;DHT22;3658;47.992;10.158;2024-03-06T08:40:26;21.60;41.10
7234;DHT22;3658;47.992;10.158;2024-03-06T08:42:53;21.60;41.00
7234;DHT22;3658;47.992;10.158;2024-03-06T08:45:20;21.70;41.10
7234;DHT22;3658;47.992;10.158;2024-03-06T08:47:49;21.60;41.00
7234;DHT22;3658;47.992;10.158;2024-03-06T08:50:16;21.60;40.90
7234;DHT22;3658;47.992;10.158;2024-03-06T08:52:43;21.60;41.50
7234;DHT22;3658;47.992;10.158;2024-03-06T08:55:09;21.60;40.90
7234;DHT22;3658;47.992;10.158;2024-03-06T08:57:37;21.60;40.90
7234;DHT22;3658;47.992;10.158;2024-03-06T09:00:05;21.60;40.80
7234;DHT22;3658;47.992;10.158;2024-03-06T09:02:36;21.60;40.90
7234;DHT22;3658;47.992;10.158;2024-03-06T09:05:04;21.50;41.10
7234;DHT22;3658;47.992;10.158;2024-03-06T09:07:31;21.40;41.30
7234;DHT22;3658;47.992;10.158;2024-03-06T09:10:03;21.40;41.20
7234;DHT22;3658;47.992;10.158;2024-03-06T09:12:31;21.50;41.70
7234;DHT22;3658;47.992;10.158;2024-03-06T09:15:00;21.50;41.00
7234;DHT22;3658;47.992;10.158;2024-03-06T09:17:27;21.50;41.00
7234;DHT22;3658;47.992;10.158;2024-03-06T09:19:54;21.40;40.90
7234;DHT22;3658;47.992;10.158;2024-03-06T09:22:21;21.40;41.00
7234;DHT22;3658;47.992;10.158;2024-03-06T09:24:48;21.40;41.10
7234;DHT22;3658;47.992;10.158;2024-03-06T09:27:15;21.40;41.10
7234;DHT22;3658;47.992;10.158;2024-03-06T09:29:42;21.40;41.20
7234;DHT22;3658;47.992;10.158;2024-03-06T09:32:11;21.40;41.00
7234;DHT22;3658;47.992;10.158;2024-03-06T09:34:40;21.30;41.00
7234;DHT22;3658;47.992;10.158;2024-03-06T09:37:07;21.30;41.10
7234;DHT22;3658;47.992;10.158;2024-03-06T09:39:35;21.30;41.00
7234;DHT22;3658;47.992;10.158;2024-03-06T09:42:01;21.30;41.00
7234;DHT22;3658;47.992;10.158;2024-03-06T09:44:29;21.30;41.00
7234;DHT22;3658;47.992;10.158;2024-03-06T09:46:59;21.30;41.00
7234;DHT22;3658;47.992;10.158;2024-03-06T09:49:30;21.30;41.30
7234;DHT22;3658;47.992;10.158;2024-03-06T09:51:58;21.30;41.20
7234;DHT22;3658;47.992;10.158;2024-03-06T09:54:26;21.20;41.40
7234;DHT22;3658;47.992;10.158;2024-03-06T09:56:53;21.20;41.90
7234;DHT22;3658;47.992;10.158;2024-03-06T09:59:21;21.20;41.30
7234;DHT22;3658;47.992;10.158;2024-03-06T10:01:50;21.20;41.40
7234;DHT22;3658;47.992;10.158;2024-03-06T10:04:20;21.30;41.30
7234;DHT22;3658;47.992;10.158;2024-03-06T10:06:49;21.30;41.30
7234;DHT22;3658;47.992;10.158;2024-03-06T10:09:18;21.40;41.20
7234;DHT22;3658;47.992;10.158;2024-03-06T10:11:44;21.40;41.10
7234;DHT22;3658;47.992;10.158;2024-03-06T10:14:12;21.50;41.00
7234;DHT22;3658;47.992;10.158;2024-03-06T10:16:52;21.50;41.00
7234;DHT22;3658;47.992;10.158;2024-03-06T10:19:19;21.50;40.90
7234;DHT22;3658;47.992;10.158;2024-03-06T10:21:48;21.50;40.90
7234;DHT22;3658;47.992;10.158;2024-03-06T10:24:20;21.50;40.90
7234;DHT22;3658;47.992;10.158;2024-03-06T10:26:48;21.50;41.00
7234;DHT22;3658;47.992;10.158;2024-03-06T10:29:16;21.50;41.10
7234;DHT22;3658;47.992;10.158;2024-03-06T10:31:48;21.40;41.10
7234;DHT22;3658;47.992;10.158;2024-03-06T10:34:16;21.40;41.20
7234;DHT22;3658;47.992;10.158;2024-03-06T10:36:43;21.50;41.20
7234;DHT22;3658;47.992;10.158;2024-03-06T10:39:12;21.50;41.00
7234;DHT22;3658;47.992;10.158;2024-03-06T10:41:40;21.50;41.10
7234;DHT22;3658;47.992;10.158;2024-03-06T10:44:11;21.40;41.00
7234;DHT22;3658;47.992;10.158;2024-03-06T10:46:41;21.50;41.00
7234;DHT22;3658;47.992;10.158;2024-03-06T10:49:11;21.50;40.90
7234;DHT22;3658;47.992;10.158;2024-03-06T10:51:40;21.50;40.90
7234;DHT22;3658;47.992;10.158;2024-03-06T10:54:09;21.50;40.90
7234;DHT22;3658;47.992;10.158;2024-03-06T10:56:38;21.50;40.90
7234;DHT22;3658;47.992;10.158;2024-03-06T10:59:08;21.50;40.90
7234;DHT22;3658;47.992;10.158;2024-03-06T11:01:36;21.40;40.90
7234;DHT22;3658;47.992;10.158;2024-03-06T11:04:04;21.40;40.80
7234;DHT22;3658;47.992;10.158;2024-03-06T11:06:31;21.50;40.90
7234;DHT22;3658;47.992;10.158;2024-03-06T11:08:59;21.50;40.90
7234;DHT22;3658;47.992;10.158;2024-03-06T11:11:25;21.40;40.90
7234;DHT22;3658;47.992;10.158;2024-03-06T11:13:59;21.40;41.00
7234;DHT22;3658;47.992;10.158;2024-03-06T11:16:30;21.40;41.10
7234;DHT22;3658;47.992;10.158;2024-03-06T11:19:06;21.30;41.40
7234;DHT22;3658;47.992;10.158;2024-03-06T11:21:34;21.20;41.10
7234;DHT22;3658;47.992;10.158;2024-03-06T11:24:18;21.20;41.40
7234;DHT22;3658;47.992;10.158;2024-03-06T11:26:56;21.10;41.10
7234;DHT22;3658;47.992;10.158;2024-03-06T11:29:28;21.10;41.50
7234;DHT22;3658;47.992;10.158;2024-03-06T11:32:06;21.10;41.70
7234;DHT22;3658;47.992;10.158;2024-03-06T11:37:56;21.10;42.10
7234;DHT22;3658;47.992;10.158;2024-03-06T11:40:23;21.10;42.30
7234;DHT22;3658;47.992;10.158;2024-03-06T11:42:50;21.00;42.40
7234;DHT22;3658;47.992;10.158;2024-03-06T11:45:19;21.00;42.50
7234;DHT22;3658;47.992;10.158;2024-03-06T11:47:58;21.00;42.70
7234;DHT22;3658;47.992;10.158;2024-03-06T11:50:26;21.00;43.50
7234;DHT22;3658;47.992;10.158;2024-03-06T11:52:53;21.00;43.50
7234;DHT22;3658;47.992;10.158;2024-03-06T11:55:21;21.10;43.70
7234;DHT22;3658;47.992;10.158;2024-03-06T11:57:48;21.10;44.00
7234;DHT22;3658;47.992;10.158;2024-03-06T12:00:15;21.10;44.40
7234;DHT22;3658;47.992;10.158;2024-03-06T12:02:44;21.10;44.80
7234;DHT22;3658;47.992;10.158;2024-03-06T12:05:12;21.10;44.70
7234;DHT22;3658;47.992;10.158;2024-03-06T12:07:47;21.10;44.80
7234;DHT22;3658;47.992;10.158;2024-03-06T12:10:14;21.10;44.70
7234;DHT22;3658;47.992;10.158;2024-03-06T12:12:41;21.10;45.00
7234;DHT22;3658;47.992;10.158;2024-03-06T12:15:10;21.10;45.20
7234;DHT22;3658;47.992;10.158;2024-03-06T12:17:43;21.10;45.60
7234;DHT22;3658;47.992;10.158;2024-03-06T12:20:12;21.00;45.60
7234;DHT22;3658;47.992;10.158;2024-03-06T12:22:44;21.00;45.60
7234;DHT22;3658;47.992;10.158;2024-03-06T12:25:17;21.00;45.50
7234;DHT22;3658;47.992;10.158;2024-03-06T12:27:44;21.00;45.80
7234;DHT22;3658;47.992;10.158;2024-03-06T12:30:11;21.00;45.80
7234;DHT22;3658;47.992;10.158;2024-03-06T12:32:38;21.00;45.40
7234;DHT22;3658;47.992;10.158;2024-03-06T12:35:08;21.00;45.30
7234;DHT22;3658;47.992;10.158;2024-03-06T12:37:35;21.00;45.10
7234;DHT22;3658;47.992;10.158;2024-03-06T12:40:03;21.00;44.90
7234;DHT22;3658;47.992;10.158;2024-03-06T12:42:30;21.00;44.80
7234;DHT22;3658;47.992;10.158;2024-03-06T12:44:57;20.90;44.20
7234;DHT22;3658;47.992;10.158;2024-03-06T12:47:24;20.90;44.40
7234;DHT22;3658;47.992;10.158;2024-03-06T12:49:51;20.90;44.30
7234;DHT22;3658;47.992;10.158;2024-03-06T12:52:19;21.00;44.20
7234;DHT22;3658;47.992;10.158;2024-03-06T12:54:46;21.00;43.90
7234;DHT22;3658;47.992;10.158;2024-03-06T12:57:13;21.00;43.70
7234;DHT22;3658;47.992;10.158;2024-03-06T12:59:40;21.10;43.50
7234;DHT22;3658;47.992;10.158;2024-03-06T13:02:07;21.10;43.40
7234;DHT22;3658;47.992;10.158;2024-03-06T13:04:33;21.10;43.20
7234;DHT22;3658;47.992;10.158;2024-03-06T13:07:00;21.20;43.30
7234;DHT22;3658;47.992;10.158;2024-03-06T13:09:29;21.20;43.00
7234;DHT22;3658;47.992;10.158;2024-03-06T13:11:56;21.20;42.90
7234;DHT22;3658;47.992;10.158;2024-03-06T13:14:22;21.20;42.70
7234;DHT22;3658;47.992;10.158;2024-03-06T13:16:49;21.20;42.70
7234;DHT22;3658;47.992;10.158;2024-03-06T13:19:16;21.20;42.60
7234;DHT22;3658;47.992;10.158;2024-03-06T13:21:42;21.20;42.50
7234;DHT22;3658;47.992;10.158;2024-03-06T13:24:09;21.20;42.40
7234;DHT22;3658;47.992;10.158;2024-03-06T13:26:38;21.20;42.40
7234;DHT22;3658;47.992;10.158;2024-03-06T13:29:06;21.20;42.40
7234;DHT22;3658;47.992;10.158;2024-03-06T13:31:33;21.20;42.30
7234;DHT22;3658;47.992;10.158;2024-03-06T13:34:00;21.20;42.30
7234;DHT22;3658;47.992;10.158;2024-03-06T13:36:29;21.10;42.30
7234;DHT22;3658;47.992;10.158;2024-03-06T13:38:56;21.10;42.30
7234;DHT22;3658;47.992;10.158;2024-03-06T13:41:22;21.10;42.40
7234;DHT22;3658;47.992;10.158;2024-03-06T13:43:51;21.10;42.20
7234;DHT22;3658;47.992;10.158;2024-03-06T13:46:17;21.20;42.20
7234;DHT22;3658;47.992;10.158;2024-03-06T13:48:44;21.30;42.20
7234;DHT22;3658;47.992;10.158;2024-03-06T13:51:11;21.30;42.10
7234;DHT22;3658;47.992;10.158;2024-03-06T13:53:38;21.40;42.00
7234;DHT22;3658;47.992;10.158;2024-03-06T13:56:05;21.40;41.90
7234;DHT22;3658;47.992;10.158;2024-03-06T13:58:32;21.40;42.00
7234;DHT22;3658;47.992;10.158;2024-03-06T14:01:00;21.40;41.80
7234;DHT22;3658;47.992;10.158;2024-03-06T14:03:27;21.50;41.80
7234;DHT22;3658;47.992;10.158;2024-03-06T14:05:54;21.50;41.70
7234;DHT22;3658;47.992;10.158;2024-03-06T14:08:21;21.50;41.70
7234;DHT22;3658;47.992;10.158;2024-03-06T14:10:48;21.50;41.90
7234;DHT22;3658;47.992;10.158;2024-03-06T14:13:14;21.50;41.70
7234;DHT22;3658;47.992;10.158;2024-03-06T14:15:41;21.50;41.60
7234;DHT22;3658;47.992;10.158;2024-03-06T14:18:09;21.50;41.80
7234;DHT22;3658;47.992;10.158;2024-03-06T14:20:36;21.40;41.80
7234;DHT22;3658;47.992;10.158;2024-03-06T14:23:04;21.20;41.80
7234;DHT22;3658;47.992;10.158;2024-03-06T14:25:31;21.20;42.00
7234;DHT22;3658;47.992;10.158;2024-03-06T14:28:00;21.40;42.10
7234;DHT22;3658;47.992;10.158;2024-03-06T14:30:27;21.40;41.90
7234;DHT22;3658;47.992;10.158;2024-03-06T14:32:53;21.50;41.70
7234;DHT22;3658;47.992;10.158;2024-03-06T14:35:21;21.40;41.60
7234;DHT22;3658;47.992;10.158;2024-03-06T14:37:49;21.40;41.60
7234;DHT22;3658;47.992;10.158;2024-03-06T14:40:16;21.40;41.80
7234;DHT22;3658;47.992;10.158;2024-03-06T14:42:42;21.50;41.80
7234;DHT22;3658;47.992;10.158;2024-03-06T14:45:09;21.50;41.60
7234;DHT22;3658;47.992;10.158;2024-03-06T14:47:36;21.50;41.40
7234;DHT22;3658;47.992;10.158;2024-03-06T14:50:03;21.50;41.50
7234;DHT22;3658;47.992;10.158;2024-03-06T14:52:32;21.50;41.50
7234;DHT22;3658;47.992;10.158;2024-03-06T14:55:00;21.50;41.40
7234;DHT22;3658;47.992;10.158;2024-03-06T14:57:27;21.60;41.30
7234;DHT22;3658;47.992;10.158;2024-03-06T14:59:54;21.60;41.30
7234;DHT22;3658;47.992;10.158;2024-03-06T15:02:20;21.60;41.30
7234;DHT22;3658;47.992;10.158;2024-03-06T15:04:47;21.60;41.20
7234;DHT22;3658;47.992;10.158;2024-03-06T15:07:14;21.60;41.20
7234;DHT22;3658;47.992;10.158;2024-03-06T15:09:42;21.50;41.20
7234;DHT22;3658;47.992;10.158;2024-03-06T15:12:09;21.50;41.30
7234;DHT22;3658;47.992;10.158;2024-03-06T15:14:35;21.60;41.10
7234;DHT22;3658;47.992;10.158;2024-03-06T15:17:03;21.60;41.10
7234;DHT22;3658;47.992;10.158;2024-03-06T15:19:30;21.60;41.10
7234;DHT22;3658;47.992;10.158;2024-03-06T15:21:56;21.60;41.10
7234;DHT22;3658;47.992;10.158;2024-03-06T15:24:29;21.60;41.00
7234;DHT22;3658;47.992;10.158;2024-03-06T15:26:57;21.60;41.10
7234;DHT22;3658;47.992;10.158;2024-03-06T15:29:23;21.60;41.10
7234;DHT22;3658;47.992;10.158;2024-03-06T15:31:51;21.60;41.00
7234;DHT22;3658;47.992;10.158;2024-03-06T15:34:18;21.60;41.10
7234;DHT22;3658;47.992;10.158;2024-03-06T15:36:45;21.60;40.90
7234;DHT22;3658;47.992;10.158;2024-03-06T15:39:11;21.60;40.90
7234;DHT22;3658;47.992;10.158;2024-03-06T15:41:38;21.50;41.10
7234;DHT22;3658;47.992;10.158;2024-03-06T15:44:06;21.40;41.20
7234;DHT22;3658;47.992;10.158;2024-03-06T15:46:33;21.40;41.30
7234;DHT22;3658;47.992;10.158;2024-03-06T15:49:06;21.50;41.40